South Reno (Wolf Run), Nevada Weather observations

Data are for observation ending at time listed.
 Day   Time    Ave.   Ave.  Ave.  Vector   Max.   Stn.    Total    Solar   Ave.  
  of    of     Air    Rel.  Wind   Wind    Wind   Baro.  Precip.   Rad.    Soil  
Year   Day     Temp.  Hum.  Speed  Dir.    Gust   Pres.                    Temp. 
2016   (PST)    F      %     mph   deg.    mph     mb.     in.     W/m2     F   
------------------------------------------------------------------------------
 147   14:20   66.7    26    3.7   216      7.6  99999.0    0.00     846    62.3
 147   14:30   65.0    25    2.6   218      6.6  99999.0    0.00     390    62.5
 147   14:40   66.1    26    1.6   164      5.9  99999.0    0.00     672    62.7
 147   14:50   68.1    26    1.4   259      5.4  99999.0    0.00     357    62.9
 147   15:00   66.3    28    1.3   193      5.3  99999.0    0.00     574    63.1
 147   15:10   65.4    26    2.7   208      4.2  99999.0    0.00     216    63.2
 147   15:20   65.2    26    2.0   156      4.7  99999.0    0.00     236    63.4
 147   15:30   66.3    27    0.6   230      4.2  99999.0    0.00     424    63.6
 147   15:40   66.8    27    2.1   308      5.4  99999.0    0.00     326    63.7
 147   15:50   66.7    26    1.8   332      5.4  99999.0    0.00     408    63.8
 147   16:00   69.6    24    4.5   340      9.1  99999.0    0.00     686    63.9
 147   16:10   69.9    23    4.8   321      9.4  99999.0    0.00     591    64.0
 147   16:20   69.5    22    4.6   316      9.0  99999.0    0.00     591    64.1
 147   16:30   69.3    22    5.4   340      8.6  99999.0    0.00     548    64.2
 147   16:40   68.8    22    4.5   352      8.3  99999.0    0.00     454    64.2
 147   16:50   66.9    24    4.0   359      6.9  99999.0    0.00     108    64.3
 147   17:00   65.6    25    3.5   357      5.8  99999.0    0.00      89    64.3
 147   17:10   65.4    25    2.7     3      5.4  99999.0    0.00     108    64.4
 147   17:20   66.9    25    3.0   351      5.1  99999.0    0.00     343    64.4
 147   17:30   66.6    25    3.4     2      6.8  99999.0    0.00     105    64.4
 147   17:40   65.1    26    2.3     2      4.9  99999.0    0.00      77    64.4
 147   17:50   65.0    27    2.2     6      4.8  99999.0    0.00     108    64.4
 147   18:00   65.6    28    1.9   356      4.1  99999.0    0.00     132    64.4
 147   18:10   66.6    28    1.8   335      5.6  99999.0    0.00      84    64.4
 147   18:20   65.7    34    1.0   304      5.5  99999.0    0.00      74    64.4
 147   18:30   64.5    36    0.3   280      2.3  99999.0    0.00      46    64.3
 147   18:40   63.0    40    1.2   260      7.0  99999.0    0.00      37    64.3
 147   18:50   61.7    42    1.9   264      6.9  99999.0    0.00      28    64.2
 147   19:00   61.2    43    2.4   265      6.9  99999.0    0.00      17    64.2
 147   19:10   60.9    44    2.4   267      8.3  99999.0    0.00      11    64.1
 147   19:20   60.5    44    3.2   265      7.7  99999.0    0.00       5    64.1
 147   19:30   60.1    45    2.3   264      9.9  99999.0    0.00       2    64.0
 147   19:40   59.8    45    2.4   266      8.8  99999.0    0.00       1    63.9
 147   19:50   59.8    45    3.6   264      7.5  99999.0    0.00       0    63.9
 147   20:00   59.4    46    1.9   290      7.5  99999.0    0.00       0    63.8
 147   20:10   59.0    46    5.9   114     11.1  99999.0    0.00       0    63.7
 147   20:20   59.1    45    6.2   138     10.0  99999.0    0.00       0    63.6
 147   20:30   59.7    43    4.0   191      6.9  99999.0    0.00       0    63.5
 147   20:40   59.1    44    3.8   219      7.6  99999.0    0.00       0    63.4
 147   20:50   59.0    44    3.2   201      5.8  99999.0    0.00       0    63.3
 147   21:00   58.2    47    4.4   243      8.3  99999.0    0.00       0    63.3
 147   21:10   58.2    46    4.6   247      8.1  99999.0    0.00       0    63.2
 147   21:20   57.4    47    5.0   239      7.9  99999.0    0.00       0    63.1
 147   21:30   57.2    48    1.6   184      5.3  99999.0    0.00       0    63.0
 147   21:40   57.2    47    0.9   136      3.3  99999.0    0.00       0    62.9
 147   21:50   56.6    49    0.5   144      2.9  99999.0    0.00       0    62.8
 147   22:00   55.1    52    1.7   200      2.8  99999.0    0.00       0    62.7
 147   22:10   54.3    54    1.7   222      3.3  99999.0    0.00       0    62.6
 147   22:20   53.1    56    1.3   236      3.8  99999.0    0.00       0    62.5
 147   22:30   53.1    56    2.2   234      4.8  99999.0    0.00       0    62.4
 147   22:40   52.5    58    2.7   233      5.0  99999.0    0.00       0    62.3
 147   22:50   53.8    57    2.1   223      3.7  99999.0    0.00       0    62.3
 147   23:00   53.7    57    1.5   223      2.3  99999.0    0.00       0    62.2
 147   23:10   53.4    58    1.1   210      2.3  99999.0    0.00       0    62.1
 147   23:20   53.1    59    1.3   206      2.7  99999.0    0.00       0    62.0
 147   23:30   51.5    67    1.5   195      3.1  99999.0    0.00       1    61.9
 147   23:40   51.6    63    2.2   210      3.4  99999.0    0.00       0    61.8
 147   23:50   52.0    62    2.3   198      3.5  99999.0    0.00       0    61.7
 148    0:00   51.3    64    2.1   214      3.8  99999.0    0.00       0    61.6
 148    0:10   50.4    66    2.8   220      3.5  99999.0    0.00       0    61.5
 148    0:20   49.5    67    2.5   232      4.8  99999.0    0.00       0    61.4
 148    0:30   48.6    70    2.0   234      4.3  99999.0    0.00       0    61.2
 148    0:40   47.4    74    1.8   230      4.3  99999.0    0.00       1    61.1
 148    0:50   47.2    72    1.8   232      3.1  99999.0    0.00       1    61.0
 148    1:00   46.6    73    0.8   232      1.9  99999.0    0.00       1    60.9
 148    1:10   46.2    74    2.3   234      5.0  99999.0    0.00       0    60.8
 148    1:20   47.3    71    1.7   229      4.9  99999.0    0.00       0    60.7
 148    1:30   46.8    72    0.5   232      2.8  99999.0    0.00       0    60.5
 148    1:40   46.1    73    1.5   238      3.8  99999.0    0.00       0    60.4
 148    1:50   45.3    74    1.3   233      2.4  99999.0    0.00       0    60.3
 148    2:00   44.0    77    1.6   236      2.3  99999.0    0.00       0    60.2
 148    2:10   43.9    78    2.0   234      4.2  99999.0    0.00       0    60.1
 148    2:20   44.2    77    2.3   237      5.6  99999.0    0.00       0    60.0
 148    2:30   44.8    75    1.7   234      2.4  99999.0    0.00       0    59.9
 148    2:40   44.5    75    1.8   232      2.6  99999.0    0.00       0    59.8
 148    2:50   44.5    75    2.2   239      5.9  99999.0    0.00       0    59.7
 148    3:00   44.6    72    1.9   242      4.2  99999.0    0.00       0    59.6
 148    3:10   44.8    68    2.0   240      4.8  99999.0    0.00       0    59.5
 148    3:20   44.3    67    1.8   233      3.1  99999.0    0.00       0    59.4
 148    3:30   43.4    69    1.8   232      2.5  99999.0    0.00       0    59.3
 148    3:40   43.0    70    1.6   237      2.1  99999.0    0.00       0    59.2
 148    3:50   42.9    70    2.1   241      4.3  99999.0    0.00       0    59.1
 148    4:00   42.2    72    2.2   235      4.7  99999.0    0.00       0    59.1
 148    4:10   42.2    72    2.0   232      3.6  99999.0    0.00       0    59.0
 148    4:20   42.5    71    1.9   242      4.2  99999.0    0.00       0    58.9
 148    4:30   42.7    70    1.8   237      2.3  99999.0    0.00       2    58.8
 148    4:40   42.1    73    2.1   233      4.3  99999.0    0.00       5    58.7
 148    4:50   42.3    73    2.3   236      4.2  99999.0    0.00      11    58.6
 148    5:00   42.6    73    2.2   239      4.9  99999.0    0.00      24    58.5
 148    5:10   43.6    72    2.0   234      3.4  99999.0    0.00      43    58.5
 148    5:20   45.8    64    3.1   238      5.0  99999.0    0.00      70    58.4
 148    5:30   47.5    61    1.6   237      3.4  99999.0    0.00     103    58.3
 148    5:40   48.9    58    2.1   229      4.6  99999.0    0.00     133    58.2
 148    5:50   50.6    55    0.9   225      2.1  99999.0    0.00     160    58.2
 148    6:00   53.3    55    0.9    97      3.4  99999.0    0.00     189    58.1
 148    6:10   53.9    55    0.7    61      2.4  99999.0    0.00     220    58.0
 148    6:20   55.4    52    0.4    60      1.6  99999.0    0.00     255    58.0
 148    6:30   56.7    50    0.3    42      1.7  99999.0    0.00     292    57.9
 148    6:40   55.7    53    1.6    63      3.1  99999.0    0.00     325    57.8
 148    6:50   55.2    53    2.7    76      4.7  99999.0    0.00     359    57.8
 148    7:00   55.3    53    2.9    81      5.8  99999.0    0.00     393    57.7
 148    7:10   56.0    51    2.6    71      4.7  99999.0    0.00     427    57.7
 148    7:20   56.8    51    2.6    77      6.1  99999.0    0.00     462    57.6
 148    7:30   57.2    49    2.6    54      4.7  99999.0    0.00     495    57.6
 148    7:40   57.0    48    2.6    61      5.1  99999.0    0.00     528    57.6
 148    7:50   57.6    48    1.8    65      4.9  99999.0    0.00     559    57.6
 148    8:00   58.6    47    2.1    52      5.0  99999.0    0.00     589    57.6
 148    8:10   58.7    46    2.4    32      4.3  99999.0    0.00     619    57.6
 148    8:20   59.4    46    1.2    20      4.8  99999.0    0.00     647    57.6
 148    8:30   59.7    45    2.1     1      4.5  99999.0    0.00     678    57.6
 148    8:40   60.4    44    1.2    72      4.9  99999.0    0.00     707    57.7
 148    8:50   62.0    41    0.9   320      3.9  99999.0    0.00     734    57.7
 148    9:00   61.6    40    1.9     8      5.0  99999.0    0.00     761    57.8
 148    9:10   62.0    36    2.4    49      5.9  99999.0    0.00     787    57.8
 148    9:20   62.2    34    3.1    57      5.6  99999.0    0.00     811    57.9
 148    9:30   62.2    34    2.3    34      6.5  99999.0    0.00     835    58.0
 148    9:40   62.7    35    3.4   354      7.3  99999.0    0.00     858    58.1
 148    9:50   63.0    34    1.2   347      4.5  99999.0    0.00     879    58.2
 148   10:00   63.6    33    2.1   348      5.2  99999.0    0.00     897    58.4
 148   10:10   64.4    34    2.7   323      5.5  99999.0    0.00     915    58.5
 148   10:20   65.4    33    1.5   343      5.1  99999.0    0.00     932    58.6
 148   10:30   64.5    32    3.0    97      6.6  99999.0    0.00     947    58.8
 148   10:40   64.7    33    1.2   167      4.7  99999.0    0.00     962    59.0
 148   10:50   67.0    31    1.0    74      3.9  99999.0    0.00     975    59.1
 148   11:00   66.6    33    0.9   156      4.1  99999.0    0.00     988    59.3
 148   11:10   65.7    34    2.3   232      5.3  99999.0    0.00     998    59.5
 148   11:20   65.9    32    0.6   196      2.6  99999.0    0.00    1005    59.7
 148   11:30   67.7    30    1.4    25      5.2  99999.0    0.00    1012    59.9
 148   11:40   68.1    30    3.3    41      7.7  99999.0    0.00    1016    60.2
 148   11:50   68.2    29    3.0    10      5.8  99999.0    0.00    1019    60.4
 148   12:00   68.6    30    2.7   349      5.6  99999.0    0.00    1021    60.6
 148   12:10   69.6    29    1.6   352      5.3  99999.0    0.00    1020    60.9
 148   12:20   69.5    28    1.9   335      5.8  99999.0    0.00    1032    61.1
 148   12:30   71.2    26    2.7   341      6.6  99999.0    0.00    1065    61.4
 148   12:40   70.0    27    2.6    24      5.4  99999.0    0.00     445    61.7
 148   12:50   70.4    27    1.4    36      3.4  99999.0    0.00     657    61.9
 148   13:00   70.3    26    3.7    22      6.8  99999.0    0.00     689    62.2
 148   13:10   71.9    27    0.9   329      3.6  99999.0    0.00     908    62.5
 148   13:20   71.7    25    1.4    29      3.9  99999.0    0.00     737    62.7
 148   13:30   72.6    26    1.7   236      5.4  99999.0    0.00     938    63.0
 148   13:40   70.5    26    1.6   258      5.1  99999.0    0.00     448    63.2
 148   13:50   70.2    28    1.2   244      4.6  99999.0    0.00     273    63.4
 148   14:00   70.8    26    1.7   302      4.7  99999.0    0.00     744    63.6
 148   14:10   71.7    25    3.0   225      8.6  99999.0    0.00     546    63.9

Return to South Reno, Nevada graphs page.


Western Regional Climate Center,wrcc@dri.edu